createdAt,value
2022-08-30T00:01:35.531Z,99.90
2022-08-30T00:04:08.193Z,99.90
2022-08-30T00:06:36.112Z,99.90
2022-08-30T00:09:04.266Z,99.90
2022-08-30T00:11:32.209Z,99.90
2022-08-30T00:14:00.123Z,99.90
2022-08-30T00:16:29.405Z,99.90
2022-08-30T00:18:57.685Z,99.90
2022-08-30T00:21:27.045Z,99.90
2022-08-30T00:23:54.977Z,99.90
2022-08-30T00:26:23.089Z,99.90
2022-08-30T00:28:51.016Z,99.90
2022-08-30T00:31:19.081Z,99.90
2022-08-30T00:33:48.461Z,99.90
2022-08-30T00:36:16.504Z,99.90
2022-08-30T00:38:44.441Z,99.90
2022-08-30T00:41:12.456Z,99.90
2022-08-30T00:43:40.375Z,99.90
2022-08-30T00:46:10.189Z,99.90
2022-08-30T00:48:41.728Z,99.90
2022-08-30T00:51:13.446Z,99.90
2022-08-30T00:53:45.996Z,99.90
2022-08-30T00:56:14.364Z,99.90
2022-08-30T00:58:52.474Z,99.90
2022-08-30T01:01:21.170Z,99.90
2022-08-30T01:03:49.800Z,99.90
2022-08-30T01:06:19.284Z,99.90
2022-08-30T01:08:48.783Z,99.90
2022-08-30T01:11:22.384Z,99.90
2022-08-30T01:13:52.945Z,99.90
2022-08-30T01:16:22.585Z,99.90
2022-08-30T01:18:52.790Z,99.90
2022-08-30T01:21:27.598Z,99.90
2022-08-30T01:23:59.982Z,99.90
2022-08-30T01:26:30.112Z,99.90
2022-08-30T01:29:01.111Z,99.90
2022-08-30T01:31:29.115Z,99.90
2022-08-30T01:33:57.029Z,99.90
2022-08-30T01:36:25.689Z,99.90
2022-08-30T01:38:57.065Z,99.90
2022-08-30T01:41:27.490Z,99.90
2022-08-30T01:43:57.658Z,99.90
2022-08-30T01:46:28.580Z,99.90
2022-08-30T01:48:58.400Z,99.90
2022-08-30T01:51:28.572Z,99.90
2022-08-30T01:53:58.085Z,99.90
2022-08-30T01:56:27.471Z,99.90
2022-08-30T01:58:59.230Z,99.90
2022-08-30T02:01:32.488Z,99.90
2022-08-30T02:04:01.034Z,99.90
2022-08-30T02:06:28.945Z,99.90
2022-08-30T02:08:58.512Z,99.90
2022-08-30T02:11:26.700Z,99.90
2022-08-30T02:13:54.539Z,99.90
2022-08-30T02:16:23.977Z,99.90
2022-08-30T02:18:53.292Z,99.90
2022-08-30T02:21:21.961Z,99.90
2022-08-30T02:23:49.812Z,99.90
2022-08-30T02:26:20.192Z,99.90
2022-08-30T02:28:49.957Z,99.90
2022-08-30T02:31:19.546Z,99.90
2022-08-30T02:33:50.821Z,99.90
2022-08-30T02:36:19.224Z,99.90
2022-08-30T02:38:47.202Z,99.90
2022-08-30T02:41:15.232Z,99.90
2022-08-30T02:43:44.379Z,99.90
2022-08-30T02:46:12.334Z,99.90
2022-08-30T02:48:41.617Z,99.90
2022-08-30T02:51:11.813Z,99.90
2022-08-30T02:53:40.960Z,99.90
2022-08-30T02:56:08.925Z,99.90
2022-08-30T02:58:37.219Z,99.90
2022-08-30T03:01:07.082Z,99.90
2022-08-30T03:03:35.025Z,99.90
2022-08-30T03:06:04.113Z,99.90
2022-08-30T03:08:32.019Z,99.90
2022-08-30T03:11:01.217Z,99.90
2022-08-30T03:13:29.591Z,99.90
2022-08-30T03:15:57.648Z,99.90
2022-08-30T03:18:27.096Z,99.90
2022-08-30T03:20:55.134Z,99.90
2022-08-30T03:23:24.399Z,99.90
2022-08-30T03:25:53.295Z,99.90
2022-08-30T03:28:21.229Z,99.90
2022-08-30T03:30:49.074Z,99.90
2022-08-30T03:33:18.212Z,99.90
2022-08-30T03:35:47.994Z,99.90
2022-08-30T03:38:15.811Z,99.90
2022-08-30T03:40:43.728Z,99.90
2022-08-30T03:43:11.959Z,99.90
2022-08-30T03:45:40.631Z,99.90
2022-08-30T03:48:08.471Z,99.90
2022-08-30T03:50:36.811Z,99.90
2022-08-30T03:53:05.972Z,99.90
2022-08-30T03:55:33.976Z,99.90
2022-08-30T03:58:01.857Z,99.90
2022-08-30T04:00:29.815Z,99.90
2022-08-30T04:02:57.630Z,99.90
2022-08-30T04:05:25.465Z,99.90
2022-08-30T04:07:53.392Z,99.90
2022-08-30T04:10:23.032Z,99.90
2022-08-30T04:12:51.353Z,99.90
2022-08-30T04:15:20.633Z,99.90
2022-08-30T04:17:49.002Z,99.90
2022-08-30T04:20:17.447Z,99.90
2022-08-30T04:22:45.558Z,99.90
2022-08-30T04:25:15.603Z,99.90
2022-08-30T04:27:45.808Z,99.90
2022-08-30T04:30:14.589Z,99.90
2022-08-30T04:32:42.926Z,99.90
2022-08-30T04:35:11.796Z,99.90
2022-08-30T04:37:40.008Z,99.90
2022-08-30T04:40:09.346Z,99.90
2022-08-30T04:42:37.402Z,99.90
2022-08-30T04:45:09.509Z,99.90
2022-08-30T04:47:39.009Z,99.90
2022-08-30T04:50:08.452Z,99.90
2022-08-30T04:52:36.385Z,99.90
2022-08-30T04:55:05.000Z,99.90
2022-08-30T04:57:33.000Z,99.90
2022-08-30T05:00:00.832Z,99.90
2022-08-30T05:02:30.185Z,99.90
2022-08-30T05:05:15.611Z,99.90
2022-08-30T05:07:43.424Z,99.90
2022-08-30T05:10:11.770Z,99.90
2022-08-30T05:12:39.763Z,99.90
2022-08-30T05:15:09.021Z,99.90
2022-08-30T05:17:39.545Z,99.90
2022-08-30T05:20:09.113Z,99.90
2022-08-30T05:22:37.272Z,99.90
2022-08-30T05:25:05.641Z,99.90
2022-08-30T05:27:33.499Z,99.90
2022-08-30T05:30:06.145Z,99.90
2022-08-30T05:32:34.028Z,99.90
2022-08-30T05:35:06.405Z,99.90
2022-08-30T05:37:34.443Z,99.90
2022-08-30T05:40:02.436Z,99.90
2022-08-30T05:42:31.162Z,99.90
2022-08-30T05:44:59.057Z,99.90
2022-08-30T05:47:27.148Z,99.90
2022-08-30T05:49:57.785Z,99.90
2022-08-30T05:52:27.265Z,99.90
2022-08-30T05:54:59.058Z,99.90
2022-08-30T05:57:27.245Z,99.90
2022-08-30T05:59:55.056Z,99.90
2022-08-30T06:02:23.429Z,99.90
2022-08-30T06:04:51.296Z,99.90
2022-08-30T06:07:22.502Z,99.90
2022-08-30T06:09:52.073Z,99.90
2022-08-30T06:12:19.890Z,99.90
2022-08-30T06:14:47.996Z,99.90
2022-08-30T06:17:15.884Z,99.90
2022-08-30T06:19:43.689Z,99.90
2022-08-30T06:22:11.560Z,99.90
2022-08-30T06:24:56.312Z,99.90
2022-08-30T06:27:26.929Z,99.90
2022-08-30T06:29:55.113Z,99.90
2022-08-30T06:32:23.396Z,99.90
2022-08-30T06:34:51.466Z,99.90
2022-08-30T06:37:29.204Z,99.90
2022-08-30T06:39:58.309Z,99.90
2022-08-30T06:42:31.813Z,99.90
2022-08-30T06:45:00.122Z,99.90
2022-08-30T06:47:29.110Z,99.90
2022-08-30T06:49:57.704Z,99.90
2022-08-30T06:52:25.788Z,99.90
2022-08-30T06:54:55.101Z,99.90
2022-08-30T06:57:22.907Z,99.90
2022-08-30T06:59:57.358Z,99.90
2022-08-30T07:02:26.242Z,99.90
2022-08-30T07:04:54.204Z,99.90
2022-08-30T07:07:23.039Z,99.90
2022-08-30T07:09:50.833Z,99.90
2022-08-30T07:12:18.804Z,99.90
2022-08-30T07:14:46.639Z,99.90
2022-08-30T07:17:34.938Z,99.90
2022-08-30T07:20:03.835Z,99.90
2022-08-30T07:22:33.119Z,99.90
2022-08-30T07:25:01.019Z,99.90
2022-08-30T07:27:28.938Z,99.90
2022-08-30T07:29:58.628Z,99.90
2022-08-30T07:32:27.788Z,99.90
2022-08-30T07:34:56.708Z,99.90
2022-08-30T07:37:24.664Z,99.90
2022-08-30T07:39:52.629Z,99.90
2022-08-30T07:42:20.456Z,99.90
2022-08-30T07:44:48.836Z,99.90
2022-08-30T07:47:16.707Z,99.90
2022-08-30T07:49:45.878Z,99.90
2022-08-30T07:52:13.725Z,99.90
2022-08-30T07:54:42.938Z,99.90
2022-08-30T07:57:11.269Z,99.90
2022-08-30T07:59:39.093Z,99.90
2022-08-30T08:02:07.043Z,99.90
2022-08-30T08:04:35.567Z,99.90
2022-08-30T08:07:04.791Z,99.90
2022-08-30T08:09:33.837Z,99.90
2022-08-30T08:12:01.957Z,99.90
2022-08-30T08:14:29.862Z,99.90
2022-08-30T08:16:57.781Z,99.90
2022-08-30T08:19:25.740Z,99.90
2022-08-30T08:22:19.524Z,99.90
2022-08-30T08:24:46.668Z,99.90
2022-08-30T08:27:14.545Z,99.90
2022-08-30T08:29:42.385Z,99.90
2022-08-30T08:32:10.181Z,99.90
2022-08-30T08:34:38.109Z,99.90
2022-08-30T08:37:05.972Z,99.90
2022-08-30T08:39:33.821Z,99.90
2022-08-30T08:42:11.146Z,99.90
2022-08-30T08:44:54.538Z,99.90
2022-08-30T08:47:27.129Z,99.90
2022-08-30T08:49:59.432Z,99.90
2022-08-30T08:52:49.115Z,99.90
2022-08-30T08:55:22.085Z,99.90
2022-08-30T08:57:52.322Z,99.90
2022-08-30T09:00:20.385Z,99.90
2022-08-30T09:02:55.828Z,99.90
2022-08-30T09:05:26.910Z,99.90
2022-08-30T09:08:00.335Z,99.90
2022-08-30T09:10:49.279Z,99.90
2022-08-30T09:13:19.559Z,99.90
2022-08-30T09:15:54.762Z,99.90
2022-08-30T09:18:42.740Z,99.90
2022-08-30T09:21:14.456Z,99.90
2022-08-30T09:23:50.618Z,99.90
2022-08-30T09:26:30.691Z,99.90
2022-08-30T09:29:00.924Z,99.90
2022-08-30T09:31:31.213Z,99.50
2022-08-30T09:34:03.256Z,98.80
2022-08-30T09:36:34.914Z,97.20
2022-08-30T09:39:05.157Z,97.40
2022-08-30T09:41:41.856Z,97.40
2022-08-30T09:44:17.434Z,96.20
2022-08-30T09:46:51.041Z,95.60
2022-08-30T09:49:35.021Z,94.40
2022-08-30T09:52:30.378Z,93.20
2022-08-30T09:55:10.772Z,92.50
2022-08-30T09:57:45.986Z,91.80
2022-08-30T10:00:21.345Z,91.60
2022-08-30T10:02:58.101Z,91.20
2022-08-30T10:05:32.653Z,91.20
2022-08-30T10:08:09.842Z,90.20
2022-08-30T10:10:48.002Z,90.00
2022-08-30T10:13:39.501Z,90.00
2022-08-30T10:16:15.958Z,89.30
2022-08-30T10:18:51.009Z,87.50
2022-08-30T10:21:25.285Z,86.60
2022-08-30T10:23:57.480Z,85.40
2022-08-30T10:26:32.389Z,86.00
2022-08-30T10:29:04.495Z,86.10
2022-08-30T10:31:38.421Z,87.10
2022-08-30T10:34:12.932Z,85.80
2022-08-30T10:36:45.449Z,86.40
2022-08-30T10:39:19.146Z,86.10
2022-08-30T10:41:51.729Z,85.90
2022-08-30T10:44:24.145Z,85.80
2022-08-30T10:47:03.237Z,84.80
2022-08-30T10:49:36.293Z,85.50
2022-08-30T10:52:20.901Z,85.20
2022-08-30T10:54:53.799Z,84.90
2022-08-30T10:57:21.979Z,84.70
2022-08-30T10:59:55.496Z,84.90
2022-08-30T11:02:40.509Z,83.70
2022-08-30T11:05:31.129Z,82.70
2022-08-30T11:08:08.065Z,82.50
2022-08-30T11:10:57.452Z,81.70
2022-08-30T11:13:28.995Z,80.30
2022-08-30T11:16:02.690Z,79.70
2022-08-30T11:18:34.397Z,78.90
2022-08-30T11:21:20.570Z,78.90
2022-08-30T11:24:00.918Z,78.60
2022-08-30T11:26:58.981Z,78.40
2022-08-30T11:29:40.916Z,78.20
2022-08-30T11:33:00.141Z,76.10
2022-08-30T11:35:39.800Z,73.60
2022-08-30T11:38:20.272Z,71.30
2022-08-30T11:40:51.669Z,70.40
2022-08-30T11:43:50.419Z,71.10
2022-08-30T11:46:36.968Z,70.10
2022-08-30T11:49:46.178Z,69.60
2022-08-30T11:52:46.602Z,69.60
2022-08-30T11:55:45.123Z,66.90
2022-08-30T11:58:26.486Z,64.00
2022-08-30T12:01:42.219Z,65.40
2022-08-30T12:04:15.038Z,64.80
2022-08-30T12:06:53.734Z,64.60
2022-08-30T12:10:03.028Z,65.90
2022-08-30T12:12:49.013Z,63.00
2022-08-30T12:15:57.789Z,63.60
2022-08-30T12:18:33.389Z,63.50
2022-08-30T12:21:10.509Z,63.20
2022-08-30T12:23:44.472Z,62.70
2022-08-30T12:26:30.162Z,62.50
2022-08-30T12:29:16.578Z,62.40
2022-08-30T12:31:47.573Z,61.40
2022-08-30T12:34:36.096Z,60.30
2022-08-30T12:37:08.019Z,59.90
2022-08-30T12:39:38.862Z,60.00
2022-08-30T12:42:20.946Z,59.80
2022-08-30T12:44:50.773Z,60.10
2022-08-30T12:47:22.709Z,60.00
2022-08-30T12:49:52.216Z,60.30
2022-08-30T12:52:23.892Z,61.10
2022-08-30T12:54:52.251Z,61.00
2022-08-30T12:57:38.189Z,60.90
2022-08-30T13:00:08.909Z,60.10
2022-08-30T13:02:45.964Z,60.40
2022-08-30T13:05:41.717Z,59.70
2022-08-30T13:08:19.480Z,60.10
2022-08-30T13:11:05.833Z,59.80
2022-08-30T13:13:41.036Z,59.40
2022-08-30T13:16:12.793Z,59.20
2022-08-30T13:18:41.093Z,60.10
2022-08-30T13:21:21.837Z,60.10
2022-08-30T13:23:50.203Z,60.20
2022-08-30T13:26:23.061Z,59.60
2022-08-30T13:28:55.152Z,59.40
2022-08-30T13:31:23.388Z,58.70
2022-08-30T13:33:53.089Z,58.40
2022-08-30T13:36:23.015Z,58.90
2022-08-30T13:38:52.901Z,59.50
2022-08-30T13:41:21.224Z,59.50
2022-08-30T13:46:42.009Z,59.40
2022-08-30T13:52:19.756Z,59.60
2022-08-30T13:54:49.805Z,59.50
2022-08-30T13:57:53.776Z,60.20
2022-08-30T14:00:12.644Z,60.80
2022-08-30T14:02:48.788Z,60.70
2022-08-30T14:05:46.716Z,60.90
2022-08-30T14:08:44.399Z,60.20
2022-08-30T14:10:58.053Z,59.70
2022-08-30T14:13:28.773Z,60.40
2022-08-30T14:18:47.428Z,60.70
2022-08-30T14:21:16.816Z,61.20
2022-08-30T14:23:44.634Z,61.50
2022-08-30T14:26:17.720Z,61.60
2022-08-30T14:28:46.322Z,62.30
2022-08-30T14:31:20.198Z,62.50
2022-08-30T14:33:49.729Z,63.00
2022-08-30T14:36:17.794Z,62.10
2022-08-30T14:38:46.327Z,62.30
2022-08-30T14:41:16.274Z,62.80
2022-08-30T14:43:44.112Z,63.50
2022-08-30T14:46:12.049Z,63.00
2022-08-30T14:48:41.536Z,63.40
2022-08-30T14:51:17.551Z,62.80
2022-08-30T14:53:46.047Z,62.60
2022-08-30T14:56:17.168Z,62.70
2022-08-30T14:58:50.557Z,62.50
2022-08-30T15:01:19.414Z,61.00
2022-08-30T15:03:47.699Z,62.10
2022-08-30T15:06:17.756Z,62.80
2022-08-30T15:08:47.873Z,63.40
2022-08-30T15:11:19.091Z,63.50
2022-08-30T15:13:47.738Z,64.30
2022-08-30T15:16:20.128Z,63.80
2022-08-30T15:18:48.584Z,63.00
2022-08-30T15:21:24.253Z,63.80
2022-08-30T15:23:52.495Z,63.10
2022-08-30T15:26:20.563Z,63.50
2022-08-30T15:28:48.825Z,63.90
2022-08-30T15:31:16.963Z,63.60
2022-08-30T15:33:44.789Z,64.30
2022-08-30T15:36:13.587Z,64.10
2022-08-30T15:38:43.220Z,64.40
2022-08-30T15:41:13.090Z,64.10
2022-08-30T15:43:41.707Z,63.60
2022-08-30T15:46:18.810Z,63.60
2022-08-30T15:48:47.537Z,63.50
2022-08-30T15:51:16.584Z,63.70
2022-08-30T15:53:46.319Z,63.90
2022-08-30T15:56:14.967Z,63.80
2022-08-30T15:58:43.632Z,63.50
2022-08-30T16:01:12.518Z,63.50
2022-08-30T16:03:41.496Z,63.80
2022-08-30T16:06:14.444Z,64.20
2022-08-30T16:08:42.623Z,64.70
2022-08-30T16:11:14.053Z,64.60
2022-08-30T16:13:42.407Z,65.10
2022-08-30T16:16:10.993Z,66.20
2022-08-30T16:18:40.007Z,68.00
2022-08-30T16:21:09.468Z,68.30
2022-08-30T16:23:38.716Z,68.40
2022-08-30T16:26:07.803Z,68.60
2022-08-30T16:28:37.670Z,69.00
2022-08-30T16:31:07.534Z,69.50
2022-08-30T16:33:41.153Z,69.80
2022-08-30T16:36:11.748Z,69.80
2022-08-30T16:38:40.512Z,70.10
2022-08-30T16:41:10.309Z,70.40
2022-08-30T16:43:40.917Z,70.60
2022-08-30T16:46:11.464Z,70.90
2022-08-30T16:48:41.112Z,71.40
2022-08-30T16:51:11.045Z,71.70
2022-08-30T16:53:40.137Z,72.00
2022-08-30T16:56:10.489Z,72.30
2022-08-30T16:58:39.714Z,72.60
2022-08-30T17:01:07.527Z,73.00
2022-08-30T17:03:38.884Z,72.60
2022-08-30T17:06:07.072Z,73.40
2022-08-30T17:08:35.401Z,74.10
2022-08-30T17:11:03.285Z,74.10
2022-08-30T17:13:31.506Z,74.30
2022-08-30T17:16:02.444Z,75.00
2022-08-30T17:18:30.371Z,75.20
2022-08-30T17:20:58.452Z,75.50
2022-08-30T17:23:26.417Z,75.90
2022-08-30T17:25:54.544Z,76.00
2022-08-30T17:28:22.615Z,76.20
2022-08-30T17:30:51.067Z,76.20
2022-08-30T17:33:20.429Z,76.40
2022-08-30T17:35:48.261Z,76.60
2022-08-30T17:38:17.015Z,76.90
2022-08-30T17:40:45.096Z,77.60
2022-08-30T17:43:12.968Z,77.90
2022-08-30T17:45:40.893Z,78.10
2022-08-30T17:48:08.730Z,78.50
2022-08-30T17:50:38.078Z,79.20
2022-08-30T17:53:06.152Z,79.70
2022-08-30T17:55:34.674Z,80.00
2022-08-30T17:58:02.814Z,80.60
2022-08-30T18:00:30.915Z,81.20
2022-08-30T18:02:59.245Z,81.60
2022-08-30T18:05:27.793Z,82.00
2022-08-30T18:07:56.964Z,83.00
2022-08-30T18:10:28.569Z,83.60
2022-08-30T18:13:01.150Z,84.10
2022-08-30T18:15:28.961Z,85.30
2022-08-30T18:17:56.792Z,85.30
2022-08-30T18:20:26.492Z,86.10
2022-08-30T18:22:56.021Z,86.80
2022-08-30T18:25:23.845Z,87.70
2022-08-30T18:27:58.216Z,88.30
2022-08-30T18:30:32.702Z,88.70
2022-08-30T18:33:01.953Z,89.00
2022-08-30T18:35:30.805Z,89.30
2022-08-30T18:38:00.013Z,89.10
2022-08-30T18:40:27.877Z,89.40
2022-08-30T18:42:55.713Z,89.60
2022-08-30T18:45:23.953Z,90.00
2022-08-30T18:47:51.830Z,90.00
2022-08-30T18:50:20.532Z,90.00
2022-08-30T18:52:48.626Z,89.90
2022-08-30T18:55:17.748Z,89.90
2022-08-30T18:57:46.125Z,89.60
2022-08-30T19:00:16.764Z,89.90
2022-08-30T19:02:44.845Z,90.10
2022-08-30T19:05:15.849Z,90.10
2022-08-30T19:07:44.150Z,90.30
2022-08-30T19:10:14.489Z,90.40
2022-08-30T19:12:43.752Z,90.50
2022-08-30T19:15:12.580Z,90.50
2022-08-30T19:17:42.889Z,90.70
2022-08-30T19:20:12.156Z,90.90
2022-08-30T19:23:05.742Z,91.10
2022-08-30T19:25:28.321Z,91.40
2022-08-30T19:27:58.311Z,91.60
2022-08-30T19:30:29.807Z,91.80
2022-08-30T19:32:58.009Z,91.80
2022-08-30T19:35:25.944Z,91.90
2022-08-30T19:37:53.790Z,92.10
2022-08-30T19:40:22.447Z,92.00
2022-08-30T19:42:51.358Z,92.10
2022-08-30T19:45:22.973Z,92.20
2022-08-30T19:47:53.036Z,92.40
2022-08-30T19:50:22.348Z,92.50
2022-08-30T19:52:54.286Z,92.70
2022-08-30T19:55:28.600Z,92.70
2022-08-30T19:57:58.175Z,92.90
2022-08-30T20:03:16.291Z,92.90
2022-08-30T20:05:44.670Z,93.00
2022-08-30T20:08:12.555Z,93.00
2022-08-30T20:10:43.013Z,92.90
2022-08-30T20:13:10.928Z,92.80
2022-08-30T20:15:40.139Z,92.90
2022-08-30T20:18:14.128Z,92.80
2022-08-30T20:20:49.932Z,92.80
2022-08-30T20:23:21.498Z,92.90
2022-08-30T20:25:51.617Z,93.00
2022-08-30T20:28:20.489Z,93.10
2022-08-30T20:30:50.202Z,93.10
2022-08-30T20:33:18.229Z,93.20
2022-08-30T20:35:49.260Z,93.40
2022-08-30T20:38:21.548Z,93.30
2022-08-30T20:40:51.476Z,93.70
2022-08-30T20:43:19.931Z,93.90
2022-08-30T20:45:49.522Z,94.00
2022-08-30T20:48:18.117Z,94.20
2022-08-30T20:50:46.489Z,94.50
2022-08-30T20:53:14.552Z,94.80
2022-08-30T20:55:43.397Z,95.10
2022-08-30T20:58:11.665Z,95.20
2022-08-30T21:00:39.492Z,95.50
2022-08-30T21:03:26.268Z,95.70
2022-08-30T21:05:56.059Z,95.80
2022-08-30T21:08:23.910Z,96.00
2022-08-30T21:10:51.921Z,96.20
2022-08-30T21:13:19.753Z,96.40
2022-08-30T21:15:51.160Z,96.60
2022-08-30T21:18:20.893Z,96.60
2022-08-30T21:20:48.773Z,96.90
2022-08-30T21:23:17.153Z,97.10
2022-08-30T21:25:45.165Z,97.30
2022-08-30T21:28:13.029Z,97.50
2022-08-30T21:30:41.052Z,97.70
2022-08-30T21:33:09.749Z,98.00
2022-08-30T21:35:56.852Z,98.10
2022-08-30T21:38:25.908Z,98.40
2022-08-30T21:40:53.719Z,98.60
2022-08-30T21:43:21.560Z,98.90
2022-08-30T21:45:51.150Z,99.00
2022-08-30T21:48:19.133Z,99.20
2022-08-30T21:50:48.435Z,99.30
2022-08-30T21:53:17.265Z,99.40
2022-08-30T21:55:45.748Z,99.60
2022-08-30T21:58:16.137Z,99.90
2022-08-30T22:00:44.065Z,99.90
2022-08-30T22:03:12.401Z,99.90
2022-08-30T22:05:40.732Z,99.90
2022-08-30T22:08:09.916Z,99.90
2022-08-30T22:10:37.738Z,99.90
2022-08-30T22:13:30.231Z,99.90
2022-08-30T22:15:58.072Z,99.90
2022-08-30T22:18:25.962Z,99.90
2022-08-30T22:20:53.905Z,99.90
2022-08-30T22:23:24.756Z,99.90
2022-08-30T22:25:52.952Z,99.90
2022-08-30T22:28:21.158Z,99.90
2022-08-30T22:30:49.363Z,99.90
2022-08-30T22:33:18.788Z,99.90
2022-08-30T22:35:47.882Z,99.90
2022-08-30T22:38:16.095Z,99.90
2022-08-30T22:40:48.895Z,99.90
2022-08-30T22:43:18.101Z,99.90
2022-08-30T22:45:46.152Z,99.90
2022-08-30T22:48:14.065Z,99.90
2022-08-30T22:50:41.965Z,99.90
2022-08-30T22:53:09.800Z,99.90
2022-08-30T22:55:40.897Z,99.90
2022-08-30T22:58:10.244Z,99.90
2022-08-30T23:00:40.639Z,99.90
2022-08-30T23:03:14.329Z,99.90
2022-08-30T23:05:42.307Z,99.90
2022-08-30T23:08:10.477Z,99.90
2022-08-30T23:10:38.351Z,99.90
2022-08-30T23:13:06.269Z,99.90
2022-08-30T23:15:35.475Z,99.90
2022-08-30T23:18:03.461Z,99.90
2022-08-30T23:20:31.484Z,99.90
2022-08-30T23:22:58.265Z,99.90
2022-08-30T23:25:45.301Z,99.90
2022-08-30T23:28:31.656Z,99.90
2022-08-30T23:31:28.705Z,99.90
2022-08-30T23:34:14.536Z,99.90
2022-08-30T23:37:00.017Z,99.90
2022-08-30T23:39:45.392Z,99.90
2022-08-30T23:42:30.841Z,99.90
2022-08-30T23:45:16.506Z,99.90
2022-08-30T23:48:03.103Z,99.90
2022-08-30T23:50:48.631Z,99.90
2022-08-30T23:53:34.270Z,99.90
2022-08-30T23:56:19.705Z,99.90
2022-08-30T23:59:05.204Z,99.90
